Long Beach, CA

4:59 AM PDT on September 20, 2014 (GMT -0700)
Long Beach | Change Station
CLOSE
Current Station
Airport
Location: Long Beach,
Elevation: 39 ft
Nearby Weather Stations

Elev 39 ft 33.81 °N, 118.15 °W | Updated 6 minutes ago

Mostly Cloudy
Mostly Cloudy
68 °F
Feels Like 68 °F
N
0
Wind Variable Wind from North

Today
High -- | Low -- °F
--% Chance of Precip.
Yesterday
High -- | Low -- °F
Precip. -- in
6:39 AM 6:52 PM
Waning Crescent, 13% visible
Pressure 29.89 in
Visibility 10.0 miles
Clouds Overcast 2000 ft
Dew Point 63 °F
Humidity 84%
Rainfall 0.00 in
Snow Depth 0 in , 0 in , 3 in
UV 0 out of 12
Pollen 6.80 out of 12
Ozone Good
Flu Activity Not available.
METAR KLGB 201153Z AUTO 00000KT 10SM OVC020 20/17 A2989 RMK AO2 SLP122 T02000172 10206 20194 53000 TSNO

More Conditions Fewer Conditions

Pressure 29.89 in
Visibility 10.0 miles
Clouds Overcast 2000 ft
Dew Point 63 °F
Humidity 84%
Rainfall 0.00 in
Snow Depth 0 in , 0 in , 3 in
UV 0 out of 12
Pollen 6.80 out of 12
Ozone Good
Flu Activity Not available.
METAR KLGB 201153Z AUTO 00000KT 10SM OVC020 20/17 A2989 RMK AO2 SLP122 T02000172 10206 20194 53000 TSNO

More Conditions Fewer Conditions

10-Day Weather Forecast

Almanac

Astronomy

Sep. 20, 2014 Rise Set
Actual Time 6:39 AM PDT 6:52 PM PDT
Civil Twilight 6:14 AM PDT 7:17 PM PDT
Nautical Twilight 5:45 AM PDT 7:46 PM PDT
Astronomical Twilight 5:16 AM PDT 8:15 PM PDT
Moon 3:30 AM PDT 4:52 PM PDT
Length of Visible Light 13h 02m
Length of Day
12h 12m
Tomorrow will be 2m 5s shorter.
Waning Crescent, 13% of the Moon is Illuminated
Today
Waning Crescent
Sep 24
New
Oct 1
First Quarter
Oct 8
Full
Oct 15
Last Quarter

Today's Extremes

State Highs State Lows

Community

WunderPhotos

Upload Photos

1,754,835 photos uploaded!

Nearby

Air Quality

  Air Quality AQ Index Pollutant
Yesterday Good
OZONE
Current Good
OZONE
Sunday Good
OZONE
Sunday Good
PM10
Sunday Good
CO
Sunday Good
NO2

Snow Depth

Station Depth Elevation
Echo Peak 0 in 7800 ft
Forestdale Creek 0 in 8029 ft
CSS Lab 3 in 6900 ft
Leavitt Meadows 1 in 7200 ft
Heavenly Valley 0 in 8850 ft

Earthquake Activity

City Distance Mag. Time & Date
Aguanga, California 88 miles 2.5 1:38 AM PDT
2014-09-19
Minimum magnitude displayed is 2.5.

Coastal Water Temperatures

Place Temperature
Santa Monica Pier 69.1 °F
Los Angeles, CA 66.9 °F
La Jolla, CA 66.0 °F

Nearby Weather Stations